createdAt,value
2023-02-08T00:01:01.086Z,103080.66
2023-02-08T00:03:29.270Z,103070.69
2023-02-08T00:05:57.153Z,103082.75
2023-02-08T00:08:24.716Z,103083.56
2023-02-08T00:10:52.662Z,103085.09
2023-02-08T00:13:20.348Z,103091.06
2023-02-08T00:15:48.601Z,103089.34
2023-02-08T00:18:16.282Z,103097.88
2023-02-08T00:20:44.539Z,103091.47
2023-02-08T00:23:13.329Z,103093.63
2023-02-08T00:25:42.132Z,103096.13
2023-02-08T00:28:14.390Z,103097.81
2023-02-08T00:30:44.004Z,103099.66
2023-02-08T00:33:12.418Z,103097.00
2023-02-08T00:35:42.277Z,103096.19
2023-02-08T00:38:09.953Z,103102.41
2023-02-08T00:40:37.753Z,103099.50
2023-02-08T00:43:06.857Z,103098.78
2023-02-08T00:45:35.690Z,103096.13
2023-02-08T00:48:03.538Z,103101.09
2023-02-08T00:50:31.147Z,103099.66
2023-02-08T00:52:59.964Z,103100.53
2023-02-08T00:55:27.559Z,103104.47
2023-02-08T00:57:55.617Z,103103.03
2023-02-08T01:00:23.704Z,103111.13
2023-02-08T01:02:51.489Z,103103.31
2023-02-08T01:05:19.231Z,103107.72
2023-02-08T01:07:47.114Z,103106.97
2023-02-08T01:10:14.976Z,103110.34
2023-02-08T01:12:42.793Z,103100.81
2023-02-08T01:15:10.412Z,103105.38
2023-02-08T01:17:39.796Z,103111.13
2023-02-08T01:20:07.832Z,103111.41
2023-02-08T01:22:37.034Z,103116.56
2023-02-08T01:25:04.821Z,103115.28
2023-02-08T01:27:32.642Z,103115.66
2023-02-08T01:30:00.201Z,103122.22
2023-02-08T01:32:29.485Z,103115.38
2023-02-08T01:34:57.232Z,103109.47
2023-02-08T01:37:25.130Z,103122.06
2023-02-08T01:39:52.644Z,103119.47
2023-02-08T01:42:22.477Z,103110.88
2023-02-08T01:45:20.816Z,103111.91
2023-02-08T01:47:55.104Z,103108.84
2023-02-08T01:50:26.489Z,103108.50
2023-02-08T01:52:54.437Z,103111.09
2023-02-08T01:55:38.112Z,103109.97
2023-02-08T01:58:10.047Z,103113.03
2023-02-08T02:00:37.912Z,103111.25
2023-02-08T02:03:07.286Z,103112.88
2023-02-08T02:05:45.345Z,103115.28
2023-02-08T02:08:13.561Z,103124.84
2023-02-08T02:10:42.593Z,103123.88
2023-02-08T02:13:18.444Z,103123.50
2023-02-08T02:15:46.497Z,103135.56
2023-02-08T02:18:23.223Z,103127.34
2023-02-08T02:20:53.832Z,103129.44
2023-02-08T02:23:42.949Z,103132.28
2023-02-08T02:26:38.530Z,103129.44
2023-02-08T02:29:22.734Z,103133.06
2023-02-08T02:32:12.325Z,103130.66
2023-02-08T02:34:43.112Z,103135.16
2023-02-08T02:37:14.303Z,103139.44
2023-02-08T02:40:15.135Z,103151.16
2023-02-08T02:43:30.676Z,103153.91
2023-02-08T02:46:13.925Z,103155.19
2023-02-08T02:49:01.752Z,103150.94
2023-02-08T02:52:01.200Z,103151.03
2023-02-08T02:54:42.267Z,103152.63
2023-02-08T02:57:16.330Z,103157.84
2023-02-08T02:59:46.760Z,103160.97
2023-02-08T03:02:15.002Z,103158.81
2023-02-08T03:04:42.521Z,103159.38
2023-02-08T03:07:32.012Z,103157.59
2023-02-08T03:10:17.803Z,103156.31
2023-02-08T03:12:58.605Z,103160.34
2023-02-08T03:15:51.500Z,103159.06
2023-02-08T03:18:35.059Z,103154.22
2023-02-08T03:21:08.262Z,103156.78
2023-02-08T03:24:07.582Z,103163.53
2023-02-08T03:26:50.467Z,103164.34
2023-02-08T03:29:37.196Z,103173.31
2023-02-08T03:32:17.202Z,103172.06
2023-02-08T03:34:48.081Z,103168.69
2023-02-08T03:37:35.878Z,103173.13
2023-02-08T03:40:14.033Z,103176.59
2023-02-08T03:42:43.012Z,103186.59
2023-02-08T03:45:20.472Z,103186.06
2023-02-08T03:47:52.450Z,103178.97
2023-02-08T03:50:23.122Z,103183.97
2023-02-08T03:52:52.237Z,103181.66
2023-02-08T03:55:31.148Z,103184.66
2023-02-08T03:58:05.119Z,103182.88
2023-02-08T04:00:39.528Z,103189.78
2023-02-08T04:03:17.428Z,103188.19
2023-02-08T04:05:45.558Z,103190.84
2023-02-08T04:08:13.355Z,103188.91
2023-02-08T04:10:41.435Z,103187.13
2023-02-08T04:13:09.166Z,103191.88
2023-02-08T04:15:37.082Z,103192.03
2023-02-08T04:18:05.569Z,103195.75
2023-02-08T04:20:33.489Z,103201.63
2023-02-08T04:23:01.090Z,103197.19
2023-02-08T04:25:29.108Z,103198.50
2023-02-08T04:27:56.923Z,103194.59
2023-02-08T04:30:24.809Z,103205.25
2023-02-08T04:32:52.358Z,103198.50
2023-02-08T04:35:20.202Z,103195.09
2023-02-08T04:37:47.964Z,103198.84
2023-02-08T04:40:15.837Z,103200.44
2023-02-08T04:42:43.451Z,103196.41
2023-02-08T04:45:11.391Z,103194.34
2023-02-08T04:47:39.058Z,103202.31
2023-02-08T04:50:07.122Z,103208.31
2023-02-08T04:52:34.739Z,103206.81
2023-02-08T04:55:02.696Z,103208.34
2023-02-08T04:57:30.270Z,103201.75
2023-02-08T05:00:00.272Z,103208.31
2023-02-08T05:02:28.185Z,103206.78
2023-02-08T05:04:56.168Z,103207.66
2023-02-08T05:07:23.957Z,103204.97
2023-02-08T05:09:51.802Z,103203.66
2023-02-08T05:12:19.292Z,103212.03
2023-02-08T05:14:47.162Z,103212.25
2023-02-08T05:17:14.726Z,103217.84
2023-02-08T05:19:42.541Z,103228.88
2023-02-08T05:22:10.136Z,103224.88
2023-02-08T05:24:37.927Z,103230.53
2023-02-08T05:27:05.515Z,103232.88
2023-02-08T05:29:33.398Z,103238.13
2023-02-08T05:32:01.211Z,103242.91
2023-02-08T05:34:29.080Z,103242.63
2023-02-08T05:36:56.767Z,103242.28
2023-02-08T05:39:24.582Z,103239.88
2023-02-08T05:41:52.213Z,103244.81
2023-02-08T05:44:20.167Z,103248.88
2023-02-08T05:46:47.851Z,103247.31
2023-02-08T05:49:15.740Z,103256.13
2023-02-08T05:51:43.453Z,103259.72
2023-02-08T05:54:11.477Z,103264.72
2023-02-08T05:56:39.109Z,103261.25
2023-02-08T05:59:06.994Z,103270.19
2023-02-08T06:01:34.558Z,103267.06
2023-02-08T06:04:02.573Z,103270.94
2023-02-08T06:06:30.449Z,103278.16
2023-02-08T06:08:58.326Z,103277.44
2023-02-08T06:11:25.866Z,103278.59
2023-02-08T06:13:53.754Z,103285.13
2023-02-08T06:16:21.451Z,103283.06
2023-02-08T06:18:49.513Z,103282.09
2023-02-08T06:21:17.104Z,103289.50
2023-02-08T06:23:45.097Z,103289.50
2023-02-08T06:26:12.765Z,103293.16
2023-02-08T06:28:40.734Z,103298.66
2023-02-08T06:31:08.395Z,103296.75
2023-02-08T06:33:36.265Z,103297.00
2023-02-08T06:36:04.037Z,103292.41
2023-02-08T06:38:32.054Z,103293.03
2023-02-08T06:40:59.627Z,103286.53
2023-02-08T06:43:27.658Z,103297.72
2023-02-08T06:45:55.270Z,103292.84
2023-02-08T06:48:23.211Z,103292.91
2023-02-08T06:50:53.839Z,103297.34
2023-02-08T06:53:21.704Z,103305.00
2023-02-08T06:55:52.717Z,103311.59
2023-02-08T06:58:21.028Z,103314.81
2023-02-08T07:00:48.904Z,103325.25
2023-02-08T07:03:17.736Z,103321.13
2023-02-08T07:06:03.461Z,103321.84
2023-02-08T07:08:33.788Z,103330.16
2023-02-08T07:11:05.725Z,103337.09
2023-02-08T07:13:33.558Z,103346.19
2023-02-08T07:16:01.179Z,103342.25
2023-02-08T07:18:29.086Z,103359.25
2023-02-08T07:20:56.870Z,103354.50
2023-02-08T07:23:25.118Z,103351.19
2023-02-08T07:26:05.525Z,103349.34
2023-02-08T07:28:33.722Z,103347.88
2023-02-08T07:31:05.333Z,103352.97
2023-02-08T07:33:33.214Z,103346.28
2023-02-08T07:36:01.083Z,103344.66
2023-02-08T07:38:28.953Z,103344.50
2023-02-08T07:41:08.244Z,103347.75
2023-02-08T07:43:37.819Z,103341.44
2023-02-08T07:46:12.263Z,103340.41
2023-02-08T07:48:40.573Z,103338.06
2023-02-08T07:51:09.028Z,103341.44
2023-02-08T07:53:37.261Z,103337.75
2023-02-08T07:56:05.497Z,103339.81
2023-02-08T07:58:33.628Z,103344.72
2023-02-08T08:01:07.046Z,103343.50
2023-02-08T08:03:44.155Z,103344.97
2023-02-08T08:06:11.715Z,103343.50
2023-02-08T08:08:39.794Z,103353.75
2023-02-08T08:11:07.367Z,103353.16
2023-02-08T08:13:35.270Z,103354.63
2023-02-08T08:16:02.866Z,103354.00
2023-02-08T08:18:31.408Z,103349.66
2023-02-08T08:20:58.925Z,103351.91
2023-02-08T08:23:29.113Z,103360.84
2023-02-08T08:25:56.844Z,103359.38
2023-02-08T08:28:24.924Z,103359.97
2023-02-08T08:30:52.760Z,103355.44
2023-02-08T08:33:21.145Z,103355.09
2023-02-08T08:35:49.079Z,103358.69
2023-02-08T08:38:17.002Z,103352.91
2023-02-08T08:40:44.600Z,103353.81
2023-02-08T08:43:12.428Z,103360.53
2023-02-08T08:45:39.957Z,103366.81
2023-02-08T08:48:07.827Z,103364.38
2023-02-08T08:50:35.462Z,103358.56
2023-02-08T08:53:03.304Z,103366.09
2023-02-08T08:55:31.166Z,103370.19
2023-02-08T08:57:59.019Z,103344.28
2023-02-08T09:00:27.297Z,103360.25
2023-02-08T09:02:55.204Z,103372.38
2023-02-08T09:05:22.998Z,103376.22
2023-02-08T09:07:50.952Z,103371.19
2023-02-08T09:10:18.729Z,103377.31
2023-02-08T09:12:46.739Z,103368.41
2023-02-08T09:15:14.394Z,103374.06
2023-02-08T09:17:42.273Z,103364.81
2023-02-08T09:20:10.782Z,103372.72
2023-02-08T09:22:38.585Z,103370.56
2023-02-08T09:25:07.750Z,103372.09
2023-02-08T09:27:36.267Z,103376.03
2023-02-08T09:30:05.954Z,103378.78
2023-02-08T09:32:34.549Z,103369.47
2023-02-08T09:35:02.745Z,103368.41
2023-02-08T09:37:30.945Z,103373.41
2023-02-08T09:40:00.259Z,103385.16
2023-02-08T09:42:38.628Z,103383.34
2023-02-08T09:45:36.706Z,103381.25
2023-02-08T09:48:15.494Z,103380.47
2023-02-08T09:50:52.892Z,103381.59
2023-02-08T09:53:35.168Z,103381.06
2023-02-08T09:56:07.380Z,103370.72
2023-02-08T09:58:49.877Z,103369.47
2023-02-08T10:01:21.788Z,103372.75
2023-02-08T10:03:53.723Z,103380.50
2023-02-08T10:06:22.008Z,103378.25
2023-02-08T10:08:52.463Z,103383.13
2023-02-08T10:11:28.926Z,103376.00
2023-02-08T10:14:18.282Z,103384.00
2023-02-08T10:16:55.087Z,103383.47
2023-02-08T10:19:42.307Z,103374.97
2023-02-08T10:22:25.084Z,103379.75
2023-02-08T10:25:04.982Z,103383.03
2023-02-08T10:27:58.528Z,103379.84
2023-02-08T10:30:26.444Z,103385.50
2023-02-08T10:33:06.697Z,103384.13
2023-02-08T10:35:44.510Z,103382.91
2023-02-08T10:38:44.088Z,103384.69
2023-02-08T10:41:20.728Z,103385.16
2023-02-08T10:44:14.230Z,103376.38
2023-02-08T10:46:52.165Z,103378.00
2023-02-08T10:49:31.616Z,103377.69
2023-02-08T10:51:59.748Z,103370.41
2023-02-08T10:54:27.382Z,103370.00
2023-02-08T10:57:05.906Z,103367.88
2023-02-08T10:59:46.248Z,103361.47
2023-02-08T11:02:40.973Z,103356.41
2023-02-08T11:05:13.460Z,103351.34
2023-02-08T11:07:41.735Z,103351.34
2023-02-08T11:10:21.183Z,103345.03
2023-02-08T11:13:15.788Z,103349.19
2023-02-08T11:15:52.676Z,103351.13
2023-02-08T11:18:33.806Z,103351.91
2023-02-08T11:21:20.905Z,103356.97
2023-02-08T11:23:52.847Z,103358.38
2023-02-08T11:26:33.267Z,103359.22
2023-02-08T11:29:06.039Z,103355.03
2023-02-08T11:31:36.165Z,103351.44
2023-02-08T11:34:10.588Z,103339.31
2023-02-08T11:36:47.523Z,103345.72
2023-02-08T11:39:25.965Z,103352.81
2023-02-08T11:41:58.207Z,103358.06
2023-02-08T11:44:34.045Z,103359.22
2023-02-08T11:47:05.625Z,103355.22
2023-02-08T11:49:43.049Z,103350.63
2023-02-08T11:52:21.517Z,103346.75
2023-02-08T11:54:49.408Z,103351.38
2023-02-08T11:57:19.263Z,103353.03
2023-02-08T11:59:48.495Z,103346.19
2023-02-08T12:02:37.343Z,103343.25
2023-02-08T12:05:13.596Z,103340.84
2023-02-08T12:07:57.680Z,103345.88
2023-02-08T12:10:45.375Z,103340.91
2023-02-08T12:13:39.205Z,103337.81
2023-02-08T12:16:34.423Z,103351.06
2023-02-08T12:19:05.048Z,103347.44
2023-02-08T12:21:45.267Z,103342.16
2023-02-08T12:24:35.119Z,103341.16
2023-02-08T12:27:27.567Z,103345.41
2023-02-08T12:30:16.946Z,103340.63
2023-02-08T12:33:06.283Z,103340.00
2023-02-08T12:36:02.756Z,103344.69
2023-02-08T12:39:01.737Z,103334.81
2023-02-08T12:41:49.129Z,103327.16
2023-02-08T12:44:43.937Z,103328.47
2023-02-08T12:47:11.411Z,103326.22
2023-02-08T12:50:17.076Z,103323.16
2023-02-08T12:52:52.078Z,103321.03
2023-02-08T12:55:29.317Z,103328.69
2023-02-08T12:58:03.235Z,103313.03
2023-02-08T13:00:35.133Z,103311.38
2023-02-08T13:03:34.057Z,103306.66
2023-02-08T13:06:07.978Z,103301.94
2023-02-08T13:08:49.563Z,103298.22
2023-02-08T13:11:45.434Z,103294.16
2023-02-08T13:14:25.602Z,103293.44
2023-02-08T13:16:58.560Z,103289.50
2023-02-08T13:19:59.759Z,103298.41
2023-02-08T13:22:34.749Z,103295.44
2023-02-08T13:25:07.834Z,103291.31
2023-02-08T13:27:36.304Z,103287.47
2023-02-08T13:30:05.506Z,103288.91
2023-02-08T13:32:45.003Z,103294.16
2023-02-08T13:35:18.146Z,103289.16
2023-02-08T13:37:55.513Z,103279.09
2023-02-08T13:40:30.318Z,103282.91
2023-02-08T13:43:02.644Z,103282.53
2023-02-08T13:45:38.046Z,103281.78
2023-02-08T13:48:08.745Z,103274.09
2023-02-08T13:50:59.149Z,103271.97
2023-02-08T13:53:39.085Z,103274.38
2023-02-08T13:56:11.327Z,103281.19
2023-02-08T13:58:57.670Z,103282.47
2023-02-08T14:01:28.870Z,103281.41
2023-02-08T14:04:09.830Z,103273.94
2023-02-08T14:07:00.536Z,103276.47
2023-02-08T14:10:02.872Z,103282.66
2023-02-08T14:12:54.375Z,103279.91
2023-02-08T14:15:32.078Z,103282.06
2023-02-08T14:18:01.321Z,103282.75
2023-02-08T14:20:40.030Z,103284.59
2023-02-08T14:23:22.155Z,103280.81
2023-02-08T14:25:53.499Z,103276.53
2023-02-08T14:28:45.935Z,103278.94
2023-02-08T14:31:17.263Z,103272.09
2023-02-08T14:33:55.360Z,103282.75
2023-02-08T14:36:34.764Z,103281.91
2023-02-08T14:39:24.415Z,103281.75
2023-02-08T14:42:03.842Z,103275.38
2023-02-08T14:44:43.445Z,103273.47
2023-02-08T14:47:31.578Z,103278.16
2023-02-08T14:50:15.676Z,103278.09
2023-02-08T14:52:52.712Z,103270.00
2023-02-08T14:55:27.699Z,103276.25
2023-02-08T14:57:58.049Z,103282.16
2023-02-08T15:00:32.645Z,103283.75
2023-02-08T15:03:02.153Z,103281.00
2023-02-08T15:05:44.153Z,103276.91
2023-02-08T15:08:12.885Z,103278.41
2023-02-08T15:10:45.161Z,103277.28
2023-02-08T15:13:22.175Z,103279.72
2023-02-08T15:15:54.387Z,103282.25
2023-02-08T15:18:40.833Z,103243.09
2023-02-08T15:21:20.592Z,103280.81
2023-02-08T15:24:13.049Z,103286.06
2023-02-08T15:26:52.489Z,103258.94
2023-02-08T15:29:42.950Z,103284.56
2023-02-08T15:32:18.960Z,103272.75
2023-02-08T15:34:56.222Z,103274.44
2023-02-08T15:37:24.574Z,103266.47
2023-02-08T15:39:55.985Z,103261.66
2023-02-08T15:42:26.860Z,103264.97
2023-02-08T15:44:55.160Z,103267.44
2023-02-08T15:47:31.537Z,103263.44
2023-02-08T15:50:00.370Z,103258.84
2023-02-08T15:52:34.648Z,103253.84
2023-02-08T15:55:05.965Z,103242.31
2023-02-08T15:57:36.774Z,103240.22
2023-02-08T16:00:18.095Z,103251.97
2023-02-08T16:02:52.537Z,103249.66
2023-02-08T16:05:27.295Z,103242.13
2023-02-08T16:07:56.065Z,103246.25
2023-02-08T16:10:39.162Z,103240.53
2023-02-08T16:13:22.574Z,103246.75
2023-02-08T16:16:03.834Z,103246.16
2023-02-08T16:18:50.047Z,103247.97
2023-02-08T16:21:39.758Z,103251.34
2023-02-08T16:24:13.563Z,103243.91
2023-02-08T16:26:59.645Z,103245.06
2023-02-08T16:29:34.934Z,103235.41
2023-02-08T16:32:26.499Z,103233.25
2023-02-08T16:34:54.522Z,103243.50
2023-02-08T16:37:32.118Z,103242.13
2023-02-08T16:40:02.650Z,103242.13
2023-02-08T16:42:35.916Z,103238.03
2023-02-08T16:45:16.379Z,103235.91
2023-02-08T16:47:50.565Z,103229.41
2023-02-08T16:50:25.347Z,103237.47
2023-02-08T16:53:01.382Z,103230.56
2023-02-08T16:55:32.838Z,103226.06
2023-02-08T16:58:00.983Z,103223.88
2023-02-08T17:00:34.862Z,103231.50
2023-02-08T17:03:02.738Z,103223.97
2023-02-08T17:05:35.530Z,103221.09
2023-02-08T17:08:07.988Z,103215.06
2023-02-08T17:10:35.730Z,103210.84
2023-02-08T17:13:19.472Z,103208.97
2023-02-08T17:15:49.611Z,103197.75
2023-02-08T17:18:18.208Z,103208.03
2023-02-08T17:20:46.706Z,103205.28
2023-02-08T17:23:15.838Z,103197.19
2023-02-08T17:25:43.966Z,103202.53
2023-02-08T17:28:19.395Z,103203.94
2023-02-08T17:30:48.719Z,103203.38
2023-02-08T17:33:19.986Z,103207.50
2023-02-08T17:35:49.833Z,103214.16
2023-02-08T17:38:19.567Z,103208.69
2023-02-08T17:40:47.491Z,103209.69
2023-02-08T17:43:15.527Z,103207.59
2023-02-08T17:45:44.548Z,103212.53
2023-02-08T17:48:14.488Z,103206.97
2023-02-08T17:50:46.544Z,103198.31
2023-02-08T17:53:15.239Z,103198.38
2023-02-08T17:55:44.135Z,103205.28
2023-02-08T17:58:12.615Z,103204.16
2023-02-08T18:00:40.424Z,103200.41
2023-02-08T18:03:08.594Z,103203.63
2023-02-08T18:05:36.980Z,103200.50
2023-02-08T18:08:05.050Z,103197.72
2023-02-08T18:10:32.751Z,103196.16
2023-02-08T18:13:00.558Z,103203.06
2023-02-08T18:15:28.409Z,103202.97
2023-02-08T18:17:56.750Z,103202.84
2023-02-08T18:20:24.331Z,103197.53
2023-02-08T18:22:52.278Z,103198.66
2023-02-08T18:25:20.628Z,103198.84
2023-02-08T18:27:48.831Z,103200.22
2023-02-08T18:30:16.392Z,103194.41
2023-02-08T18:32:44.644Z,103198.19
2023-02-08T18:35:12.440Z,103201.28
2023-02-08T18:37:40.558Z,103202.50
2023-02-08T18:40:09.854Z,103200.63
2023-02-08T18:42:37.847Z,103197.06
2023-02-08T18:45:07.080Z,103190.00
2023-02-08T18:47:39.465Z,103187.53
2023-02-08T18:50:07.498Z,103190.94
2023-02-08T18:52:35.620Z,103198.53
2023-02-08T18:55:03.567Z,103201.22
2023-02-08T18:57:31.524Z,103197.31
2023-02-08T18:59:59.199Z,103204.19
2023-02-08T19:02:27.454Z,103202.41
2023-02-08T19:04:55.395Z,103201.41
2023-02-08T19:07:23.240Z,103202.00
2023-02-08T19:09:51.224Z,103205.09
2023-02-08T19:12:19.071Z,103199.31
2023-02-08T19:14:50.771Z,103202.09
2023-02-08T19:17:18.923Z,103200.00
2023-02-08T19:19:47.047Z,103193.53
2023-02-08T19:22:15.131Z,103186.88
2023-02-08T19:24:43.086Z,103180.19
2023-02-08T19:27:10.852Z,103186.88
2023-02-08T19:29:39.116Z,103189.31
2023-02-08T19:32:08.144Z,103173.28
2023-02-08T19:34:36.164Z,103187.94
2023-02-08T19:37:03.838Z,103187.47
2023-02-08T19:39:31.791Z,103176.03
2023-02-08T19:41:59.519Z,103179.38
2023-02-08T19:44:30.305Z,103170.59
2023-02-08T19:46:58.425Z,103170.38
2023-02-08T19:49:27.322Z,103166.38
2023-02-08T19:51:55.648Z,103167.25
2023-02-08T19:54:24.302Z,103170.94
2023-02-08T19:56:54.652Z,103167.59
2023-02-08T19:59:28.423Z,103167.06
2023-02-08T20:01:56.435Z,103178.38
2023-02-08T20:04:25.018Z,103177.31
2023-02-08T20:06:54.156Z,103183.09
2023-02-08T20:09:22.528Z,103177.53
2023-02-08T20:11:57.136Z,103172.19
2023-02-08T20:14:29.225Z,103159.75
2023-02-08T20:16:57.332Z,103156.63
2023-02-08T20:19:25.821Z,103157.19
2023-02-08T20:21:53.655Z,103162.19
2023-02-08T20:24:21.568Z,103159.09
2023-02-08T20:26:49.867Z,103173.50
2023-02-08T20:29:18.468Z,103167.94
2023-02-08T20:31:48.759Z,103177.06
2023-02-08T20:34:18.916Z,103161.06
2023-02-08T20:37:05.772Z,103149.63
2023-02-08T20:39:36.178Z,103152.75
2023-02-08T20:42:04.357Z,103168.63
2023-02-08T20:44:32.533Z,103155.41
2023-02-08T20:47:00.642Z,103161.09
2023-02-08T20:49:30.814Z,103153.66
2023-02-08T20:51:58.652Z,103159.09
2023-02-08T20:54:26.535Z,103161.34
2023-02-08T20:56:54.732Z,103152.63
2023-02-08T20:59:22.781Z,103159.09
2023-02-08T21:01:50.898Z,103153.66
2023-02-08T21:04:23.242Z,103146.88
2023-02-08T21:06:52.265Z,103147.09
2023-02-08T21:09:21.128Z,103140.84
2023-02-08T21:11:49.939Z,103140.19
2023-02-08T21:14:20.943Z,103144.41
2023-02-08T21:16:51.437Z,103136.03
2023-02-08T21:19:20.944Z,103143.50
2023-02-08T21:21:54.157Z,103142.63
2023-02-08T21:24:23.955Z,103131.50
2023-02-08T21:26:53.495Z,103139.94
2023-02-08T21:29:22.368Z,103124.75
2023-02-08T21:31:53.556Z,103150.81
2023-02-08T21:34:21.804Z,103142.16
2023-02-08T21:36:49.391Z,103144.25
2023-02-08T21:39:17.592Z,103138.56
2023-02-08T21:41:45.562Z,103136.31
2023-02-08T21:44:13.508Z,103133.03
2023-02-08T21:46:41.099Z,103134.25
2023-02-08T21:49:28.869Z,103140.31
2023-02-08T21:52:15.213Z,103133.59
2023-02-08T21:54:44.302Z,103140.25
2023-02-08T21:57:19.638Z,103130.22
2023-02-08T21:59:50.371Z,103140.06
2023-02-08T22:02:25.477Z,103131.66
2023-02-08T22:04:55.377Z,103127.41
2023-02-08T22:07:24.387Z,103115.84
2023-02-08T22:09:52.520Z,103110.28
2023-02-08T22:12:22.532Z,103107.88
2023-02-08T22:14:51.034Z,103109.28
2023-02-08T22:17:18.791Z,103102.75
2023-02-08T22:19:46.668Z,103096.50
2023-02-08T22:22:14.320Z,103090.03
2023-02-08T22:24:42.289Z,103093.91
2023-02-08T22:27:10.582Z,103100.06
2023-02-08T22:29:38.441Z,103095.63
2023-02-08T22:32:07.552Z,103088.91
2023-02-08T22:34:37.150Z,103081.25
2023-02-08T22:37:04.834Z,103075.72
2023-02-08T22:39:34.238Z,103075.78
2023-02-08T22:42:07.963Z,103073.47
2023-02-08T22:44:37.007Z,103065.91
2023-02-08T22:47:08.685Z,103058.66
2023-02-08T22:49:37.142Z,103059.47
2023-02-08T22:52:05.951Z,103048.38
2023-02-08T22:54:34.779Z,103047.53
2023-02-08T22:57:02.506Z,103039.88
2023-02-08T22:59:30.480Z,103037.75
2023-02-08T23:01:58.682Z,103043.06
2023-02-08T23:04:26.599Z,103039.94
2023-02-08T23:06:54.522Z,103038.38
2023-02-08T23:09:22.839Z,103038.94
2023-02-08T23:11:50.770Z,103030.63
2023-02-08T23:14:19.106Z,103024.38
2023-02-08T23:16:46.674Z,103020.66
2023-02-08T23:19:16.694Z,103020.88
2023-02-08T23:21:44.664Z,103025.53
2023-02-08T23:24:12.986Z,103016.22
2023-02-08T23:26:40.734Z,103010.88
2023-02-08T23:29:08.564Z,103014.84
2023-02-08T23:31:39.066Z,103013.78
2023-02-08T23:34:07.021Z,103008.97
2023-02-08T23:36:34.583Z,103009.63
2023-02-08T23:39:03.461Z,103006.66
2023-02-08T23:41:31.145Z,102999.13
2023-02-08T23:43:59.010Z,102994.09
2023-02-08T23:46:28.627Z,102995.53
2023-02-08T23:48:57.328Z,102998.84
2023-02-08T23:51:25.630Z,102995.75
2023-02-08T23:53:55.312Z,103005.25
2023-02-08T23:56:28.305Z,103016.31
2023-02-08T23:58:58.338Z,103013.53
